»·PEaware :: N1980 KRNO-KSLC

N1980 :: KRNO-KSLC

FLIGHT INFORMATION

Flight Status: Arrived
Operator: Privately registered:
United States
More flights under this callsign
Pilot: Max M. (20768)
Aircraft: Unknown
(E35L)
More flights by this aircraft type
Origin: KRNO Reno/Tahoe Intl
United States
Destination: KSLC Salt Lake City Intl
United States
More flights between these airports :: More routes between these airports
Route: +ZEFFR6 BLKJK LLC BAM J154 BVL WAATS5
File this flight plan on PilotEdge
Remarks:
Altitude:
(Current/Filed)
19,000ft
Speed:
(Current/Filed)
300kts
Departed: 20-Oct-20 07:27 PM
Arrived: 20-Oct-20 08:37 PM
Distance/Time
Traveled:
366nm/1:10
Distance/Time
To Go:
Arrived

Flight Plot

Page will automatically refresh every two minutes.

Flight plan parsing failed; only flown route is shown


Map Options




Map Legend


Flown Route
Filed Route
Departure Airport
Arrival Airport
Navaid (VOR, NDB)
Fix

Horizontal Profiles

Position Reports

Time Latitude Longitude Heading Altitude Ground
Speed
20-Oct-20 18:40 39.512551 -119.763961 359 4422ft 0kts
20-Oct-20 18:41 39.512551 -119.763961 359 4422ft 0kts
20-Oct-20 18:42 39.512551 -119.763961 359 4422ft 0kts
20-Oct-20 18:43 39.512551 -119.763961 359 4422ft 0kts
20-Oct-20 18:44 39.512551 -119.763961 359 4422ft 0kts
20-Oct-20 18:45 39.512551 -119.763961 359 4422ft 0kts
20-Oct-20 18:46 39.512551 -119.763961 359 4422ft 0kts
20-Oct-20 18:47 39.512551 -119.763961 359 4422ft 0kts
20-Oct-20 18:48 39.512551 -119.763961 359 4422ft 0kts
20-Oct-20 18:49 39.512551 -119.763961 359 4422ft 0kts
20-Oct-20 18:50 39.512551 -119.763961 359 4422ft 0kts
20-Oct-20 18:51 39.512551 -119.763961 359 4422ft 0kts
20-Oct-20 18:52 39.512551 -119.763961 359 4422ft 0kts
20-Oct-20 18:53 39.512551 -119.763961 359 4422ft 0kts
20-Oct-20 18:54 39.512551 -119.763961 359 4422ft 0kts
20-Oct-20 18:55 39.512551 -119.763961 359 4422ft 0kts
20-Oct-20 18:56 39.512551 -119.763961 359 4422ft 0kts
20-Oct-20 18:57 39.512551 -119.763961 359 4422ft 0kts
20-Oct-20 18:58 39.512551 -119.763961 359 4422ft 0kts
20-Oct-20 18:59 39.512551 -119.763961 359 4422ft 0kts
20-Oct-20 19:00 39.512551 -119.763961 359 4422ft 0kts
20-Oct-20 19:01 39.512551 -119.763961 359 4422ft 0kts
20-Oct-20 19:02 39.512551 -119.763961 359 4422ft 0kts
20-Oct-20 19:03 39.512551 -119.763961 359 4422ft 0kts
20-Oct-20 19:04 39.512551 -119.763961 359 4422ft 0kts
20-Oct-20 19:05 39.512551 -119.763961 359 4422ft 0kts
20-Oct-20 19:06 39.512551 -119.763961 359 4422ft 0kts
20-Oct-20 19:07 39.512551 -119.763961 359 4422ft 0kts
20-Oct-20 19:08 39.512551 -119.763961 359 4422ft 0kts
20-Oct-20 19:09 39.512551 -119.763961 359 4422ft 0kts
20-Oct-20 19:10 39.512551 -119.763960 0 4422ft 0kts
20-Oct-20 19:11 39.512765 -119.763959 0 4422ft 0kts
20-Oct-20 19:12 39.512765 -119.763959 0 4422ft 0kts
20-Oct-20 19:13 39.512765 -119.763959 0 4422ft 0kts
20-Oct-20 19:14 39.512765 -119.763959 0 4422ft 0kts
20-Oct-20 19:15 39.512765 -119.763959 0 4422ft 0kts
20-Oct-20 19:16 39.512765 -119.763959 0 4422ft 0kts
20-Oct-20 19:17 39.512765 -119.763959 0 4422ft 0kts
20-Oct-20 19:18 39.512765 -119.763959 0 4422ft 0kts
20-Oct-20 19:19 39.512765 -119.763959 0 4422ft 0kts
20-Oct-20 19:20 39.512765 -119.763959 0 4422ft 0kts
20-Oct-20 19:21 39.512765 -119.763959 0 4422ft 0kts
20-Oct-20 19:22 39.513239 -119.765057 319 4422ft 16kts
20-Oct-20 19:23 39.513534 -119.765395 307 4422ft 0kts
20-Oct-20 19:24 39.513599 -119.765522 299 4422ft 0kts
20-Oct-20 19:25 39.513237 -119.766828 178 4422ft 0kts
20-Oct-20 19:26 39.496912 -119.766742 180 4422ft 178kts
20-Oct-20 19:27 39.424880 -119.768930 179 5276ft 347kts
20-Oct-20 19:28 39.343220 -119.769663 180 7745ft 256kts
20-Oct-20 19:29 39.295482 -119.712370 118 8958ft 276kts
20-Oct-20 19:30 39.298537 -119.609964 50 10774ft 370kts
20-Oct-20 19:31 39.358946 -119.503171 42 15263ft 379kts
20-Oct-20 19:32 39.434754 -119.411695 38 18991ft 347kts
20-Oct-20 19:33 39.510121 -119.321272 39 19126ft 392kts
20-Oct-20 19:34 39.592241 -119.223047 39 19117ft 404kts
20-Oct-20 19:35 39.674785 -119.124041 39 19117ft 405kts
20-Oct-20 19:36 39.757447 -119.024533 39 19116ft 405kts
20-Oct-20 19:37 39.839908 -118.924931 39 19102ft 406kts
20-Oct-20 19:38 39.922592 -118.824712 39 19113ft 407kts
20-Oct-20 19:39 40.005277 -118.724136 38 19133ft 408kts
20-Oct-20 19:40 40.088042 -118.623129 38 19110ft 408kts
20-Oct-20 19:41 40.147329 -118.497376 65 19087ft 417kts
20-Oct-20 19:42 40.186648 -118.355034 66 19088ft 416kts
20-Oct-20 19:43 40.225491 -118.213194 66 19085ft 414kts
20-Oct-20 19:44 40.264245 -118.070887 67 19088ft 414kts
20-Oct-20 19:45 40.302528 -117.929498 66 19105ft 413kts
20-Oct-20 19:46 40.340712 -117.787703 66 19111ft 412kts
20-Oct-20 19:47 40.378690 -117.645868 66 19111ft 413kts
20-Oct-20 19:48 40.416601 -117.503451 66 19112ft 414kts
20-Oct-20 19:49 40.454463 -117.360407 66 19113ft 415kts
20-Oct-20 19:50 40.492074 -117.217460 67 19108ft 415kts
20-Oct-20 19:51 40.529750 -117.073462 67 19108ft 416kts
20-Oct-20 19:52 40.566836 -116.929424 72 19098ft 420kts
20-Oct-20 19:53 40.578285 -116.775462 82 19110ft 424kts
20-Oct-20 19:54 40.587780 -116.621009 82 19111ft 425kts
20-Oct-20 19:55 40.597103 -116.465899 82 19112ft 426kts
20-Oct-20 19:56 40.606248 -116.310234 83 19107ft 426kts
20-Oct-20 19:57 40.615154 -116.154964 83 19108ft 426kts
20-Oct-20 19:59 40.623880 -115.999242 83 19114ft 426kts
20-Oct-20 20:00 40.632385 -115.843707 83 19118ft 427kts
20-Oct-20 20:01 40.640722 -115.687236 83 19120ft 428kts
20-Oct-20 20:02 40.648835 -115.531034 83 19121ft 429kts
20-Oct-20 20:03 40.656775 -115.374170 83 19121ft 430kts
20-Oct-20 20:04 40.664509 -115.217041 84 19115ft 430kts
20-Oct-20 20:05 40.672016 -115.060005 84 19088ft 431kts
20-Oct-20 20:06 40.679376 -114.901782 84 19063ft 433kts
20-Oct-20 20:07 40.686517 -114.743438 84 19066ft 433kts
20-Oct-20 20:08 40.693458 -114.584754 84 19069ft 434kts
20-Oct-20 20:09 40.700203 -114.425497 84 18758ft 443kts
20-Oct-20 20:10 40.706754 -114.265498 85 19020ft 435kts
20-Oct-20 20:11 40.713068 -114.105955 85 18469ft 439kts
20-Oct-20 20:12 40.719203 -113.945595 85 17759ft 433kts
20-Oct-20 20:13 40.724972 -113.788692 85 17058ft 424kts
20-Oct-20 20:14 40.726026 -113.637243 88 17011ft 404kts
20-Oct-20 20:14 40.725835 -113.515464 88 17013ft 392kts
20-Oct-20 20:16 40.725367 -113.347313 89 17022ft 404kts
20-Oct-20 20:16 40.724852 -113.221500 89 17014ft 420kts
20-Oct-20 20:18 40.723859 -113.038551 89 17014ft 434kts
20-Oct-20 20:18 40.722959 -112.905834 89 17028ft 431kts
20-Oct-20 20:19 40.721706 -112.749731 89 16815ft 421kts
20-Oct-20 20:20 40.720288 -112.599350 89 17009ft 405kts
20-Oct-20 20:21 40.729631 -112.450678 78 16003ft 413kts
20-Oct-20 20:22 40.751020 -112.301405 68 14537ft 414kts
20-Oct-20 20:23 40.732323 -112.169782 119 12680ft 326kts
20-Oct-20 20:24 40.760658 -112.097607 358 12003ft 209kts
20-Oct-20 20:25 40.821365 -112.100182 348 11823ft 244kts
20-Oct-20 20:26 40.896517 -112.110754 349 10284ft 291kts
20-Oct-20 20:27 40.977134 -112.127650 349 8596ft 296kts
20-Oct-20 20:28 41.046228 -112.120461 62 7994ft 208kts
20-Oct-20 20:29 41.034162 -112.057479 111 7028ft 170kts
20-Oct-20 20:30 41.015873 -112.001031 138 6575ft 150kts
20-Oct-20 20:31 40.970258 -111.978655 186 7001ft 204kts
20-Oct-20 20:32 40.914537 -111.979722 173 8097ft 206kts
20-Oct-20 20:33 40.858641 -111.967040 172 5339ft 179kts
20-Oct-20 20:34 40.813511 -111.962033 179 4593ft 158kts
20-Oct-20 20:35 40.783642 -111.962075 176 4223ft 56kts
20-Oct-20 20:36 40.782090 -111.958966 90 4225ft 2kts
20-Oct-20 20:37 40.782091 -111.958961 88 4225ft 0kts

Navigation Log

Ident Type
Flight plan parsing failed, navigation log unavailable